Time;durP1;ratioP1;P1;durP2;ratioP2;P2;SDS_P1;SDS_P2;PMS_P1;PMS_P2;Temp;Humidity;BMP_temperature;BMP_pressure;BME280_temperature;BME280_humidity;BME280_pressure;Samples;Min_cycle;Max_cycle;Signal;HPM_P1;HPM_P2
2023/01/26 00:03:32;;;;;;;73.93;24.67;;;;;;;;;;12840556;19;20493;-69
2023/01/26 00:07:50;;;;;;;21.58;11.80;;;;;;;;;;12837366;19;20403;-69
2023/01/26 00:12:07;;;;;;;26.83;12.40;;;;;;;;;;12838092;19;20465;-69
2023/01/26 00:16:26;;;;;;;186.20;53.60;;;;;;;;;;12838673;19;20505;-68
2023/01/26 00:20:44;;;;;;;66.68;22.77;;;;;;;;;;12834567;19;20667;-69
2023/01/26 00:25:02;;;;;;;56.20;21.85;;;;;;;;;;12837920;19;20027;-69
2023/01/26 00:29:20;;;;;;;12.38;8.05;;;;;;;;;;12837725;19;20504;-69
2023/01/26 00:33:37;;;;;;;15.93;8.57;;;;;;;;;;12837590;19;20506;-69
2023/01/26 00:37:55;;;;;;;15.85;8.02;;;;;;;;;;12837627;19;20312;-69
2023/01/26 00:42:13;;;;;;;118.50;39.33;;;;;;;;;;12836570;19;20468;-70
2023/01/26 00:46:30;;;;;;;84.55;29.77;;;;;;;;;;12836422;19;20497;-69
2023/01/26 00:50:52;;;;;;;63.45;25.88;;;;;;;;;;12836039;19;20763;-70
2023/01/26 00:55:09;;;;;;;66.18;26.80;;;;;;;;;;12838172;19;20090;-68
2023/01/26 00:59:28;;;;;;;86.05;32.90;;;;;;;;;;12837282;19;20325;-69
2023/01/26 01:03:46;;;;;;;30.60;14.75;;;;;;;;;;12837069;19;20376;-70
2023/01/26 01:08:03;;;;;;;129.25;45.53;;;;;;;;;;12833010;19;20620;-69
2023/01/26 01:12:21;;;;;;;83.10;29.58;;;;;;;;;;12836331;19;20436;-68
2023/01/26 01:16:41;;;;;;;83.60;29.38;;;;;;;;;;12835938;19;20456;-68
2023/01/26 01:20:58;;;;;;;22.90;10.70;;;;;;;;;;12835636;19;20376;-68
2023/01/26 01:25:16;;;;;;;41.92;15.45;;;;;;;;;;12834818;19;20519;-68
2023/01/26 01:29:33;;;;;;;99.05;33.47;;;;;;;;;;12833357;19;20477;-68
2023/01/26 01:33:52;;;;;;;109.78;36.75;;;;;;;;;;12844928;19;20698;-68
2023/01/26 01:38:10;;;;;;;84.32;30.45;;;;;;;;;;12844821;19;20374;-68
2023/01/26 01:42:28;;;;;;;91.88;36.38;;;;;;;;;;12846029;19;20441;-69
2023/01/26 01:47:03;;;;;;;49.47;22.08;;;;;;;;;;12844616;19;20362;-69
2023/01/26 01:51:40;;;;;;;14.02;8.73;;;;;;;;;;12844091;19;20084;-69
2023/01/26 01:56:03;;;;;;;18.25;10.20;;;;;;;;;;12842961;19;20462;-69
2023/01/26 02:00:23;;;;;;;13.25;7.45;;;;;;;;;;12847637;19;20396;-69
2023/01/26 02:04:41;;;;;;;54.30;24.95;;;;;;;;;;12843729;19;20547;-68
2023/01/26 02:08:59;;;;;;;70.15;28.92;;;;;;;;;;12845577;19;20446;-69
2023/01/26 02:13:18;;;;;;;50.10;21.60;;;;;;;;;;12844166;19;20472;-69
2023/01/26 02:17:37;;;;;;;25.67;12.68;;;;;;;;;;12843478;19;20361;-69
2023/01/26 02:22:01;;;;;;;29.55;14.15;;;;;;;;;;12842663;19;20488;-67
2023/01/26 02:26:22;;;;;;;42.50;19.30;;;;;;;;;;12844900;19;20363;-68
2023/01/26 02:30:39;;;;;;;32.97;16.65;;;;;;;;;;12841748;19;20532;-68
2023/01/26 02:34:57;;;;;;;14.48;8.30;;;;;;;;;;12844854;19;20484;-68
2023/01/26 02:39:21;;;;;;;21.88;10.98;;;;;;;;;;12841917;19;20469;-68
2023/01/26 02:43:39;;;;;;;22.38;11.52;;;;;;;;;;12840435;19;20493;-67
2023/01/26 02:47:58;;;;;;;21.48;12.38;;;;;;;;;;12844490;19;20443;-68
2023/01/26 02:52:24;;;;;;;20.67;12.35;;;;;;;;;;12841776;19;20321;-67
2023/01/26 02:56:42;;;;;;;14.00;7.93;;;;;;;;;;12840971;19;20393;-68
2023/01/26 03:00:59;;;;;;;16.98;8.38;;;;;;;;;;12841707;19;20409;-69
2023/01/26 03:05:17;;;;;;;19.27;11.43;;;;;;;;;;12840291;19;20113;-68
2023/01/26 03:09:35;;;;;;;13.68;8.43;;;;;;;;;;12839749;19;20074;-68
2023/01/26 03:13:53;;;;;;;18.10;10.55;;;;;;;;;;12840017;19;20308;-70
2023/01/26 03:27:30;;;;;;;16.88;8.07;;;;;;;;;;12841097;19;20011;-69
2023/01/26 03:31:48;;;;;;;14.20;7.68;;;;;;;;;;12840454;19;20010;-68
2023/01/26 03:36:06;;;;;;;;;;;;;;;;;;12837619;19;20361;-67
2023/01/26 03:58:52;;;;;;;13.77;8.30;;;;;;;;;;12838581;19;20484;-68
2023/01/26 04:12:22;;;;;;;14.27;7.32;;;;;;;;;;12837150;19;20485;-68
2023/01/26 04:21:26;;;;;;;12.52;7.07;;;;;;;;;;12835953;19;20348;-67
2023/01/26 04:25:44;;;;;;;11.87;6.97;;;;;;;;;;12836580;19;20399;-67
2023/01/26 04:30:03;;;;;;;12.40;7.35;;;;;;;;;;12838177;19;20768;-69
2023/01/26 04:34:21;;;;;;;14.65;7.53;;;;;;;;;;12837631;19;20514;-68
2023/01/26 04:38:38;;;;;;;10.55;7.25;;;;;;;;;;12837500;19;20484;-68
2023/01/26 04:42:56;;;;;;;11.70;7.03;;;;;;;;;;12835234;19;20350;-67
2023/01/26 04:47:13;;;;;;;12.32;7.32;;;;;;;;;;12834631;19;20595;-67
2023/01/26 04:51:31;;;;;;;25.07;10.97;;;;;;;;;;12836781;19;20392;-68
2023/01/26 04:55:49;;;;;;;15.55;8.10;;;;;;;;;;12835197;19;20519;-68
2023/01/26 05:00:08;;;;;;;10.23;7.38;;;;;;;;;;12833229;19;20508;-68
2023/01/26 05:04:26;;;;;;;12.65;7.50;;;;;;;;;;12832964;19;20018;-67
2023/01/26 05:08:44;;;;;;;14.65;8.50;;;;;;;;;;12833610;19;20295;-68
2023/01/26 05:13:01;;;;;;;14.15;7.57;;;;;;;;;;12836724;19;20394;-67
2023/01/26 05:17:19;;;;;;;14.10;8.57;;;;;;;;;;12838550;19;20018;-68
2023/01/26 05:21:37;;;;;;;12.00;8.40;;;;;;;;;;12838165;19;20368;-68
2023/01/26 05:25:55;;;;;;;15.40;8.23;;;;;;;;;;12838894;19;20522;-68
2023/01/26 05:30:13;;;;;;;15.98;6.72;;;;;;;;;;12837519;19;20401;-68
2023/01/26 05:34:31;;;;;;;12.80;6.97;;;;;;;;;;12838441;19;20472;-67
2023/01/26 05:38:49;;;;;;;13.27;8.10;;;;;;;;;;12835554;19;20464;-69
2023/01/26 05:43:07;;;;;;;12.00;6.82;;;;;;;;;;12834734;19;20428;-67
2023/01/26 05:47:24;;;;;;;13.18;7.45;;;;;;;;;;12835737;19;20375;-68
2023/01/26 05:51:43;;;;;;;13.40;8.60;;;;;;;;;;12837969;19;20443;-68
2023/01/26 05:56:00;;;;;;;;;;;;;;;;;;12835404;19;20374;-69
2023/01/26 06:00:18;;;;;;;18.10;8.73;;;;;;;;;;12835346;19;19974;-68
2023/01/26 06:04:35;;;;;;;18.50;10.60;;;;;;;;;;12834387;19;20091;-67
2023/01/26 06:08:53;;;;;;;14.25;7.88;;;;;;;;;;12836363;19;20358;-68
2023/01/26 06:13:10;;;;;;;16.63;9.65;;;;;;;;;;12834772;19;20385;-68
2023/01/26 06:17:28;;;;;;;13.83;8.63;;;;;;;;;;12837111;19;20367;-70
2023/01/26 06:21:46;;;;;;;15.40;8.43;;;;;;;;;;12846451;19;20361;-68
2023/01/26 06:26:05;;;;;;;14.85;7.85;;;;;;;;;;12845635;19;20014;-69
2023/01/26 06:30:23;;;;;;;13.35;7.38;;;;;;;;;;12846482;19;20338;-68
2023/01/26 06:34:41;;;;;;;12.00;6.77;;;;;;;;;;12846720;19;20493;-69
2023/01/26 06:38:58;;;;;;;17.13;9.10;;;;;;;;;;12844101;19;20604;-68
2023/01/26 06:43:17;;;;;;;18.60;10.20;;;;;;;;;;12832579;19;20444;-68
2023/01/26 06:47:34;;;;;;;29.77;13.10;;;;;;;;;;12845170;19;20003;-68
2023/01/26 06:52:19;;;;;;;23.92;11.55;;;;;;;;;;12844097;19;20406;-68
2023/01/26 06:56:37;;;;;;;18.27;9.77;;;;;;;;;;12842642;19;20421;-68
2023/01/26 07:00:55;;;;;;;18.83;10.15;;;;;;;;;;12843311;19;20066;-68
2023/01/26 07:05:13;;;;;;;23.35;12.63;;;;;;;;;;12843505;19;20386;-67
2023/01/26 07:09:30;;;;;;;23.93;10.40;;;;;;;;;;12844441;19;20664;-68
2023/01/26 07:13:48;;;;;;;11.50;7.53;;;;;;;;;;12844626;19;20569;-68
2023/01/26 07:18:06;;;;;;;15.80;8.45;;;;;;;;;;12841311;19;20021;-68
2023/01/26 07:22:24;;;;;;;;;;;;;;;;;;12844079;19;20014;-68
2023/01/26 07:26:41;;;;;;;24.83;12.40;;;;;;;;;;12843941;19;20348;-69
2023/01/26 07:31:00;;;;;;;23.45;13.00;;;;;;;;;;12840636;19;20277;-69
2023/01/26 07:35:18;;;;;;;22.75;12.80;;;;;;;;;;12839964;19;20489;-69
2023/01/26 07:39:35;;;;;;;27.75;15.02;;;;;;;;;;12842641;19;20360;-68
2023/01/26 07:43:53;;;;;;;17.08;8.60;;;;;;;;;;12842450;19;20035;-68
2023/01/26 07:48:11;;;;;;;15.07;8.27;;;;;;;;;;12842808;19;20451;-68
2023/01/26 07:52:28;;;;;;;14.10;8.52;;;;;;;;;;12841643;19;20018;-70
2023/01/26 07:56:51;;;;;;;22.15;9.60;;;;;;;;;;12840561;19;20338;-69
2023/01/26 08:01:13;;;;;;;18.30;10.82;;;;;;;;;;12840040;19;20011;-69
2023/01/26 08:05:31;;;;;;;18.25;10.73;;;;;;;;;;12840114;19;20472;-68
2023/01/26 08:09:49;;;;;;;18.48;10.10;;;;;;;;;;12839885;19;20589;-68
2023/01/26 08:14:07;;;;;;;17.17;8.95;;;;;;;;;;12840164;19;20432;-69
2023/01/26 08:18:25;;;;;;;17.58;8.07;;;;;;;;;;12840740;19;20440;-68
2023/01/26 08:22:42;;;;;;;15.57;8.77;;;;;;;;;;12839839;19;20313;-68
2023/01/26 08:27:00;;;;;;;14.77;8.38;;;;;;;;;;12840177;19;20022;-68
2023/01/26 08:31:20;;;;;;;17.80;9.50;;;;;;;;;;12838459;19;20436;-69
2023/01/26 08:35:38;;;;;;;19.10;10.02;;;;;;;;;;12838773;19;20247;-69
2023/01/26 08:39:55;;;;;;;30.30;17.67;;;;;;;;;;12836164;19;20464;-69
2023/01/26 08:44:13;;;;;;;31.52;17.25;;;;;;;;;;12836778;19;20235;-69
2023/01/26 08:48:31;;;;;;;62.63;27.63;;;;;;;;;;12839733;19;20445;-68
2023/01/26 08:52:48;;;;;;;39.65;19.30;;;;;;;;;;12839663;19;20390;-69
2023/01/26 08:57:06;;;;;;;23.05;10.95;;;;;;;;;;12836591;19;20015;-70
2023/01/26 09:01:23;;;;;;;23.92;12.60;;;;;;;;;;12836922;19;20358;-68
2023/01/26 09:05:41;;;;;;;46.90;22.23;;;;;;;;;;12839153;19;20472;-68
2023/01/26 09:09:59;;;;;;;39.20;22.02;;;;;;;;;;12838753;19;20023;-69
2023/01/26 09:14:16;;;;;;;54.22;26.60;;;;;;;;;;12838465;19;20011;-69
2023/01/26 09:18:34;;;;;;;36.58;19.88;;;;;;;;;;12838249;19;20018;-69
2023/01/26 09:22:53;;;;;;;21.13;11.15;;;;;;;;;;12837697;19;20378;-69
2023/01/26 09:27:10;;;;;;;18.17;10.75;;;;;;;;;;12836883;19;20448;-70
2023/01/26 09:31:28;;;;;;;21.85;12.35;;;;;;;;;;12837616;19;20453;-70
2023/01/26 09:35:46;;;;;;;42.75;23.23;;;;;;;;;;12837904;19;20374;-68
2023/01/26 09:40:05;;;;;;;32.45;18.80;;;;;;;;;;12835875;19;20368;-69
2023/01/26 09:44:30;;;;;;;18.98;10.68;;;;;;;;;;12834956;19;20653;-69
2023/01/26 09:49:10;;;;;;;15.35;8.65;;;;;;;;;;12835665;19;20436;-69
2023/01/26 09:53:46;;;;;;;18.70;10.20;;;;;;;;;;12841925;19;20473;-69
2023/01/26 09:58:31;;;;;;;17.02;9.80;;;;;;;;;;12847194;19;20443;-70
2023/01/26 10:03:07;;;;;;;18.88;10.90;;;;;;;;;;12846823;19;20014;-70
2023/01/26 10:07:24;;;;;;;17.85;11.23;;;;;;;;;;12851047;19;20481;-70
2023/01/26 10:11:46;;;;;;;18.38;10.77;;;;;;;;;;12846729;19;20491;-70
2023/01/26 10:16:08;;;;;;;18.55;11.77;;;;;;;;;;12847623;19;20366;-68
2023/01/26 10:20:37;;;;;;;20.88;12.35;;;;;;;;;;12845929;19;20496;-69
2023/01/26 10:24:58;;;;;;;25.00;11.75;;;;;;;;;;12845914;19;20365;-70
2023/01/26 10:29:16;;;;;;;19.58;11.70;;;;;;;;;;12847222;19;20455;-70
2023/01/26 10:33:36;;;;;;;14.70;8.23;;;;;;;;;;12845577;19;20321;-70
2023/01/26 10:37:55;;;;;;;18.83;9.50;;;;;;;;;;12847363;19;20436;-70
2023/01/26 10:42:17;;;;;;;18.20;9.48;;;;;;;;;;12842775;19;20464;-69
2023/01/26 10:46:39;;;;;;;27.10;17.30;;;;;;;;;;12844485;19;20479;-70
2023/01/26 10:51:15;;;;;;;24.33;12.23;;;;;;;;;;12844988;19;20464;-68
2023/01/26 10:55:36;;;;;;;22.60;13.35;;;;;;;;;;12843419;19;20334;-69
2023/01/26 11:00:00;;;;;;;25.85;13.65;;;;;;;;;;12843823;19;20370;-69
2023/01/26 11:04:18;;;;;;;16.85;9.45;;;;;;;;;;12842313;19;20309;-69
2023/01/26 11:08:38;;;;;;;18.88;11.27;;;;;;;;;;12845602;19;20440;-69
2023/01/26 11:13:16;;;;;;;23.27;12.60;;;;;;;;;;12845554;19;20472;-69
2023/01/26 11:17:47;;;;;;;36.67;17.08;;;;;;;;;;12843084;19;20358;-69
2023/01/26 11:22:36;;;;;;;23.15;12.48;;;;;;;;;;12841521;19;20018;-69
2023/01/26 11:27:26;;;;;;;18.50;9.98;;;;;;;;;;12843031;19;20376;-68
2023/01/26 11:32:05;;;;;;;72.65;33.35;;;;;;;;;;12844755;19;20574;-69
2023/01/26 11:36:54;;;;;;;26.55;13.45;;;;;;;;;;12842065;19;20330;-69
2023/01/26 11:41:40;;;;;;;30.50;16.52;;;;;;;;;;12840806;19;20383;-68
2023/01/26 11:46:19;;;;;;;21.02;12.45;;;;;;;;;;12833936;19;20464;-69
2023/01/26 11:51:22;;;;;;;18.20;9.18;;;;;;;;;;12821288;19;20446;-69
2023/01/26 11:55:58;;;;;;;21.17;11.80;;;;;;;;;;12822909;19;20018;-69
2023/01/26 12:00:22;;;;;;;78.35;24.90;;;;;;;;;;12823731;19;20645;-69
2023/01/26 12:04:47;;;;;;;36.10;14.18;;;;;;;;;;12819654;19;20492;-69
2023/01/26 12:09:42;;;;;;;47.85;19.63;;;;;;;;;;12819135;19;20370;-68
2023/01/26 12:14:09;;;;;;;25.15;11.63;;;;;;;;;;12818204;19;20472;-69
2023/01/26 12:18:39;;;;;;;24.08;10.77;;;;;;;;;;12815315;19;20509;-69
2023/01/26 12:23:32;;;;;;;31.98;16.35;;;;;;;;;;12819836;19;20031;-70
2023/01/26 12:28:10;;;;;;;25.75;13.73;;;;;;;;;;12819282;19;20484;-70
2023/01/26 12:32:27;;;;;;;217.02;77.10;;;;;;;;;;12818463;19;20471;-69
2023/01/26 12:37:20;;;;;;;178.15;62.08;;;;;;;;;;12818322;19;20015;-71
2023/01/26 12:41:41;;;;;;;40.33;16.27;;;;;;;;;;12820900;19;20456;-70
2023/01/26 12:46:01;;;;;;;47.67;23.27;;;;;;;;;;12821567;19;20500;-70
2023/01/26 12:50:39;;;;;;;60.00;28.02;;;;;;;;;;12818924;19;20508;-70
2023/01/26 12:55:10;;;;;;;29.98;15.07;;;;;;;;;;12819636;19;20011;-68
2023/01/26 12:59:36;;;;;;;24.33;11.85;;;;;;;;;;12820235;19;20421;-70
2023/01/26 13:04:14;;;;;;;32.70;17.73;;;;;;;;;;12816883;19;20364;-69
2023/01/26 13:08:31;;;;;;;17.27;10.23;;;;;;;;;;12818907;19;20496;-69
2023/01/26 13:13:00;;;;;;;18.93;11.43;;;;;;;;;;12820075;19;20014;-70
2023/01/26 13:17:18;;;;;;;27.85;14.63;;;;;;;;;;12820052;19;20145;-69
2023/01/26 13:21:37;;;;;;;24.60;11.75;;;;;;;;;;12819984;19;20441;-69
2023/01/26 13:26:30;;;;;;;21.70;11.43;;;;;;;;;;12817341;19;20492;-69
2023/01/26 13:31:04;;;;;;;35.42;18.73;;;;;;;;;;12831141;19;20766;-70
2023/01/26 13:35:25;;;;;;;44.20;23.50;;;;;;;;;;12831463;19;20496;-68
2023/01/26 13:39:51;;;;;;;52.75;28.17;;;;;;;;;;12829245;19;20480;-71
2023/01/26 13:44:25;;;;;;;42.92;22.40;;;;;;;;;;12825583;19;20488;-69
2023/01/26 13:48:54;;;;;;;33.22;16.77;;;;;;;;;;12826163;19;20471;-69
2023/01/26 13:53:36;;;;;;;19.27;10.50;;;;;;;;;;12826024;19;20503;-70
2023/01/26 13:58:12;;;;;;;40.25;19.70;;;;;;;;;;12826410;19;20508;-69
2023/01/26 14:02:33;;;;;;;29.58;14.05;;;;;;;;;;12823203;19;20496;-70
2023/01/26 14:07:04;;;;;;;49.33;23.70;;;;;;;;;;12829269;19;20286;-68
2023/01/26 14:11:26;;;;;;;36.50;19.33;;;;;;;;;;12826518;19;20377;-69
2023/01/26 14:15:43;;;;;;;31.05;16.75;;;;;;;;;;12826569;19;20428;-70
2023/01/26 14:20:35;;;;;;;26.20;12.57;;;;;;;;;;12825178;19;20010;-69
2023/01/26 14:24:54;;;;;;;36.63;19.25;;;;;;;;;;12829489;19;20313;-69
2023/01/26 14:29:24;;;;;;;37.70;19.75;;;;;;;;;;12827455;19;20480;-68
2023/01/26 14:33:42;;;;;;;21.60;11.77;;;;;;;;;;12823669;19;20608;-69
2023/01/26 14:38:16;;;;;;;43.72;21.23;;;;;;;;;;12822374;19;20324;-70
2023/01/26 14:42:34;;;;;;;38.92;20.23;;;;;;;;;;12823403;19;20470;-70
2023/01/26 14:47:08;;;;;;;33.63;17.40;;;;;;;;;;12821881;19;20070;-69
2023/01/26 14:51:27;;;;;;;27.85;16.13;;;;;;;;;;12826127;19;20325;-69
2023/01/26 14:55:44;;;;;;;28.55;14.93;;;;;;;;;;12825348;19;20508;-70
2023/01/26 15:00:17;;;;;;;31.10;16.48;;;;;;;;;;12827287;19;20517;-69
2023/01/26 15:04:40;;;;;;;31.02;17.98;;;;;;;;;;12821702;19;20524;-68
2023/01/26 15:09:18;;;;;;;26.83;13.95;;;;;;;;;;12824982;19;20308;-69
2023/01/26 15:13:40;;;;;;;29.58;15.25;;;;;;;;;;12823007;19;20318;-69
2023/01/26 15:18:17;;;;;;;33.95;18.85;;;;;;;;;;12823430;19;20666;-68
2023/01/26 15:22:35;;;;;;;;;;;;;;;;;;12824539;19;20079;-68
2023/01/26 15:27:02;;;;;;;25.85;13.85;;;;;;;;;;12823774;19;20485;-68
2023/01/26 15:31:31;;;;;;;26.70;15.20;;;;;;;;;;12823494;19;20497;-69
2023/01/26 15:35:57;;;;;;;23.25;13.30;;;;;;;;;;12823660;19;20112;-69
2023/01/26 15:40:15;;;;;;;21.45;11.98;;;;;;;;;;12823222;19;20383;-69
2023/01/26 15:44:32;;;;;;;22.85;13.48;;;;;;;;;;12824219;19;20472;-68
2023/01/26 15:48:50;;;;;;;20.67;13.50;;;;;;;;;;12823872;19;20523;-68
2023/01/26 15:53:18;;;;;;;20.90;10.70;;;;;;;;;;12819921;19;20669;-70
2023/01/26 15:57:36;;;;;;;25.42;13.35;;;;;;;;;;12820910;19;20042;-69
2023/01/26 16:01:55;;;;;;;20.85;11.77;;;;;;;;;;12822892;19;20488;-68
2023/01/26 16:06:23;;;;;;;23.92;11.60;;;;;;;;;;12819215;19;20138;-69
2023/01/26 16:10:41;;;;;;;23.38;14.25;;;;;;;;;;12818476;19;20488;-68
2023/01/26 16:15:09;;;;;;;26.20;15.02;;;;;;;;;;12815914;19;20495;-69
2023/01/26 16:19:27;;;;;;;22.67;14.40;;;;;;;;;;12818121;19;20015;-69
2023/01/26 16:23:51;;;;;;;44.13;27.27;;;;;;;;;;12817745;19;20019;-69
2023/01/26 16:28:09;;;;;;;37.17;21.10;;;;;;;;;;12818205;19;20129;-69
2023/01/26 16:32:28;;;;;;;36.22;23.88;;;;;;;;;;12819501;19;20736;-68
2023/01/26 16:36:45;;;;;;;61.17;35.95;;;;;;;;;;12818688;19;20011;-68
2023/01/26 16:41:04;;;;;;;34.28;20.52;;;;;;;;;;12819946;19;20484;-68
2023/01/26 16:45:28;;;;;;;41.20;24.13;;;;;;;;;;12815258;19;20509;-69
2023/01/26 16:49:46;;;;;;;25.27;13.80;;;;;;;;;;12815321;19;20463;-70
2023/01/26 16:54:04;;;;;;;29.13;16.45;;;;;;;;;;12817841;19;20455;-69
2023/01/26 16:58:25;;;;;;;53.33;27.90;;;;;;;;;;12816271;19;20117;-69
2023/01/26 17:02:47;;;;;;;27.92;16.85;;;;;;;;;;12814903;19;20531;-70
2023/01/26 17:07:04;;;;;;;28.45;18.08;;;;;;;;;;12814013;19;20368;-68
2023/01/26 17:11:27;;;;;;;27.85;17.02;;;;;;;;;;12818500;19;20500;-69
2023/01/26 17:15:45;;;;;;;25.75;14.93;;;;;;;;;;12814458;19;20544;-69
2023/01/26 17:20:04;;;;;;;;;;;;;;;;;;12815980;19;20898;-69
2023/01/26 17:24:34;;;;;;;32.92;16.00;;;;;;;;;;12816279;19;20341;-69
2023/01/26 17:28:54;;;;;;;28.40;15.27;;;;;;;;;;12814411;19;20365;-69
2023/01/26 17:33:11;;;;;;;40.90;21.05;;;;;;;;;;12813903;19;20043;-69
2023/01/26 17:37:30;;;;;;;32.90;16.75;;;;;;;;;;12817296;19;20376;-69
2023/01/26 17:41:47;;;;;;;31.67;16.52;;;;;;;;;;12817538;19;20391;-69
2023/01/26 17:46:19;;;;;;;36.87;20.63;;;;;;;;;;12814796;19;20529;-69
2023/01/26 17:50:37;;;;;;;31.83;17.02;;;;;;;;;;12811063;19;20884;-69
2023/01/26 17:54:54;;;;;;;46.83;25.63;;;;;;;;;;12812935;19;20078;-68
2023/01/26 17:59:12;;;;;;;49.05;24.50;;;;;;;;;;12813641;19;20309;-70
2023/01/26 18:03:29;;;;;;;45.75;23.83;;;;;;;;;;12814316;19;20464;-69
2023/01/26 18:07:47;;;;;;;29.83;16.85;;;;;;;;;;12815696;19;20584;-69
2023/01/26 18:12:05;;;;;;;30.77;16.83;;;;;;;;;;12814198;19;20461;-68
2023/01/26 18:16:23;;;;;;;39.78;24.10;;;;;;;;;;12824070;19;20508;-69
2023/01/26 18:20:40;;;;;;;33.42;21.25;;;;;;;;;;12825506;19;20480;-68
2023/01/26 18:24:58;;;;;;;29.23;15.05;;;;;;;;;;12823313;19;20730;-69
2023/01/26 18:29:15;;;;;;;36.08;19.17;;;;;;;;;;12823400;19;20595;-69
2023/01/26 18:33:34;;;;;;;28.08;17.67;;;;;;;;;;12820635;19;20082;-69
2023/01/26 18:37:52;;;;;;;24.15;13.98;;;;;;;;;;12820134;19;20484;-69
2023/01/26 18:42:10;;;;;;;23.48;13.88;;;;;;;;;;12823904;19;20019;-69
2023/01/26 18:46:29;;;;;;;29.35;14.38;;;;;;;;;;12827521;19;20382;-70
2023/01/26 18:50:48;;;;;;;25.48;14.60;;;;;;;;;;12823695;19;20417;-68
2023/01/26 18:55:07;;;;;;;29.70;16.88;;;;;;;;;;12824740;19;20332;-69
2023/01/26 18:59:25;;;;;;;24.02;13.57;;;;;;;;;;12822997;19;20130;-68
2023/01/26 19:03:46;;;;;;;23.48;14.65;;;;;;;;;;12823719;19;20508;-69
2023/01/26 19:08:09;;;;;;;23.85;13.65;;;;;;;;;;12821148;19;20349;-68
2023/01/26 19:12:26;;;;;;;27.85;15.00;;;;;;;;;;12821206;19;20015;-68
2023/01/26 19:16:47;;;;;;;23.45;13.90;;;;;;;;;;12823311;19;20435;-68
2023/01/26 19:21:06;;;;;;;26.92;15.13;;;;;;;;;;12820948;19;20007;-69
2023/01/26 19:25:25;;;;;;;27.23;15.13;;;;;;;;;;12819605;19;20530;-69
2023/01/26 19:29:43;;;;;;;37.00;18.95;;;;;;;;;;12819714;19;20011;-69
2023/01/26 19:34:04;;;;;;;30.40;16.67;;;;;;;;;;12819855;19;20463;-69
2023/01/26 19:38:22;;;;;;;31.50;16.40;;;;;;;;;;12820281;19;20533;-69
2023/01/26 19:42:40;;;;;;;24.58;14.32;;;;;;;;;;12819761;19;20344;-68
2023/01/26 19:46:57;;;;;;;27.38;14.35;;;;;;;;;;12819445;19;20380;-69
2023/01/26 19:51:25;;;;;;;22.92;13.32;;;;;;;;;;12821734;19;20469;-68
2023/01/26 19:55:42;;;;;;;24.00;14.43;;;;;;;;;;12819396;19;20027;-68
2023/01/26 20:00:01;;;;;;;21.90;12.93;;;;;;;;;;12818942;19;20468;-69
2023/01/26 20:04:18;;;;;;;21.92;13.80;;;;;;;;;;12816952;19;20441;-68
2023/01/26 20:08:36;;;;;;;22.55;14.02;;;;;;;;;;12816232;19;20537;-69
2023/01/26 20:12:56;;;;;;;22.88;13.50;;;;;;;;;;12817840;19;20397;-68
2023/01/26 20:17:13;;;;;;;22.88;13.48;;;;;;;;;;12815586;19;20374;-68
2023/01/26 20:21:32;;;;;;;23.42;13.43;;;;;;;;;;12815812;19;20484;-68
2023/01/26 20:25:50;;;;;;;24.33;15.35;;;;;;;;;;12815792;19;20500;-69
2023/01/26 20:30:09;;;;;;;29.45;16.23;;;;;;;;;;12812059;19;20387;-69
2023/01/26 20:34:27;;;;;;;30.80;15.50;;;;;;;;;;12818186;19;20346;-68
2023/01/26 20:38:47;;;;;;;36.25;19.30;;;;;;;;;;12816444;19;20321;-69
2023/01/26 20:43:04;;;;;;;41.80;21.80;;;;;;;;;;12812685;19;20888;-68
2023/01/26 20:47:22;;;;;;;41.85;22.83;;;;;;;;;;12811573;19;20378;-68
2023/01/26 20:51:41;;;;;;;48.58;24.45;;;;;;;;;;12815098;19;20309;-69
2023/01/26 20:55:59;;;;;;;41.58;22.13;;;;;;;;;;12812617;19;20090;-69
2023/01/26 21:00:17;;;;;;;122.97;56.90;;;;;;;;;;12812121;19;20913;-67
2023/01/26 21:04:35;;;;;;;235.05;100.93;;;;;;;;;;12816152;19;20536;-68
2023/01/26 21:08:56;;;;;;;86.95;40.88;;;;;;;;;;12815875;19;20365;-68
2023/01/26 21:13:14;;;;;;;33.35;17.98;;;;;;;;;;12811773;19;20973;-68
2023/01/26 21:17:32;;;;;;;35.35;19.48;;;;;;;;;;12812381;19;20041;-69
2023/01/26 21:21:49;;;;;;;95.82;43.05;;;;;;;;;;12812587;19;20484;-69
2023/01/26 21:26:15;;;;;;;76.00;34.88;;;;;;;;;;12813639;19;20561;-68
2023/01/26 21:30:34;;;;;;;56.80;27.97;;;;;;;;;;12812453;19;20354;-68
2023/01/26 21:34:52;;;;;;;56.50;28.83;;;;;;;;;;12813320;19;20559;-68
2023/01/26 21:39:13;;;;;;;43.35;21.38;;;;;;;;;;12809699;19;20353;-69
2023/01/26 21:43:31;;;;;;;38.85;20.45;;;;;;;;;;12811220;19;20421;-69
2023/01/26 21:48:26;;;;;;;27.52;16.25;;;;;;;;;;12812535;19;20439;-68
2023/01/26 21:58:52;;;;;;;126.85;52.30;;;;;;;;;;12825349;19;20494;-68
2023/01/26 22:01:49;;;;;;;33.80;16.45;;;;;;;;;;12824538;19;20361;-69
2023/01/26 22:06:07;;;;;;;31.02;17.52;;;;;;;;;;12823671;19;20485;-68
2023/01/26 22:10:24;;;;;;;29.50;16.63;;;;;;;;;;12827722;19;20496;-69
2023/01/26 22:14:42;;;;;;;77.80;34.87;;;;;;;;;;12825276;19;20066;-68
2023/01/26 22:19:00;;;;;;;34.70;18.80;;;;;;;;;;12824135;19;20845;-68
2023/01/26 22:23:17;;;;;;;44.95;22.52;;;;;;;;;;12823551;19;20707;-68
2023/01/26 22:27:39;;;;;;;33.58;19.05;;;;;;;;;;12823155;19;20294;-68
2023/01/26 22:31:56;;;;;;;35.13;17.17;;;;;;;;;;12822191;19;20429;-68
2023/01/26 22:36:15;;;;;;;27.80;16.60;;;;;;;;;;12824347;19;20482;-69
2023/01/26 22:40:35;;;;;;;33.42;19.20;;;;;;;;;;12820897;19;20516;-70
2023/01/26 22:44:53;;;;;;;35.17;19.33;;;;;;;;;;12820256;19;20309;-69
2023/01/26 22:49:11;;;;;;;30.42;17.98;;;;;;;;;;12819881;19;21061;-68
2023/01/26 22:53:28;;;;;;;33.87;16.63;;;;;;;;;;12819393;19;20531;-68
2023/01/26 22:57:46;;;;;;;43.22;19.13;;;;;;;;;;12824806;19;20231;-68
2023/01/26 23:02:03;;;;;;;33.70;17.67;;;;;;;;;;12820020;19;20795;-68
2023/01/26 23:06:22;;;;;;;32.33;17.35;;;;;;;;;;12822255;19;20558;-68
2023/01/26 23:10:39;;;;;;;;;;;;;;;;;;12821217;19;20393;-68
2023/01/26 23:14:56;;;;;;;29.63;16.07;;;;;;;;;;12819656;19;20358;-69
2023/01/26 23:19:14;;;;;;;32.60;16.13;;;;;;;;;;12822290;19;21087;-69
2023/01/26 23:23:32;;;;;;;26.23;15.60;;;;;;;;;;12821559;19;20567;-68
2023/01/26 23:27:50;;;;;;;30.25;16.20;;;;;;;;;;12823076;19;20443;-69
2023/01/26 23:32:07;;;;;;;35.45;17.00;;;;;;;;;;12821396;19;20365;-68
2023/01/26 23:36:25;;;;;;;25.35;14.63;;;;;;;;;;12820752;19;20390;-69
2023/01/26 23:40:44;;;;;;;24.92;15.48;;;;;;;;;;12819620;19;20622;-69
2023/01/26 23:45:02;;;;;;;28.23;14.65;;;;;;;;;;12818314;19;20493;-68
2023/01/26 23:49:19;;;;;;;26.38;14.35;;;;;;;;;;12821282;19;20468;-67
2023/01/26 23:53:38;;;;;;;77.00;27.70;;;;;;;;;;12819212;19;20626;-68
2023/01/26 23:57:55;;;;;;;;;;;;;;;;;;12818522;19;20287;-68
